Terminal Aerodrome Forecast
Issued by NWS Newport/Morehead City, NC

Home | Current Version | Previous Version | Text Only | Print | Product List | Glossary On
Versions: 1 2 3 4 5 6 7 8 9 10 11 12 13 14 15 16 17 18 19 20 21
000
FTUS42 KMHX 181100
TAFEWN
TAF
KEWN 181131Z 1812/1912 03010KT P6SM OVC008
     FM181400 04010KT P6SM SCT030 OVC200
     FM182100 06008KT P6SM SCT010 OVC050
     FM190300 06010KT 4SM RA BR BKN010=

USA.gov is the U.S. government's official web portal to all federal, state and local government web resources and services.